createdAt,value
2023-03-22T00:00:06.662Z,100825.22
2023-03-22T00:02:42.170Z,100824.31
2023-03-22T00:05:10.126Z,100828.50
2023-03-22T00:07:58.148Z,100825.16
2023-03-22T00:10:31.459Z,100817.34
2023-03-22T00:13:00.085Z,100817.13
2023-03-22T00:15:29.706Z,100823.50
2023-03-22T00:18:02.319Z,100819.16
2023-03-22T00:20:37.648Z,100820.00
2023-03-22T00:23:06.667Z,100825.47
2023-03-22T00:25:37.061Z,100828.88
2023-03-22T00:28:04.801Z,100832.53
2023-03-22T00:30:32.322Z,100827.41
2023-03-22T00:33:00.267Z,100836.06
2023-03-22T00:35:28.107Z,100831.63
2023-03-22T00:37:56.051Z,100828.38
2023-03-22T00:40:23.979Z,100821.22
2023-03-22T00:42:51.740Z,100832.53
2023-03-22T00:45:19.834Z,100820.53
2023-03-22T00:47:47.473Z,100830.03
2023-03-22T00:50:15.357Z,100829.97
2023-03-22T00:52:43.232Z,100829.00
2023-03-22T00:55:11.073Z,100830.72
2023-03-22T00:57:39.429Z,100828.13
2023-03-22T01:00:16.116Z,100823.84
2023-03-22T01:02:46.028Z,100829.09
2023-03-22T01:05:22.011Z,100830.03
2023-03-22T01:07:50.877Z,100827.34
2023-03-22T01:10:23.285Z,100823.97
2023-03-22T01:12:51.734Z,100825.91
2023-03-22T01:15:19.584Z,100824.06
2023-03-22T01:17:48.128Z,100831.66
2023-03-22T01:20:15.748Z,100831.50
2023-03-22T01:22:43.340Z,100834.25
2023-03-22T01:25:11.120Z,100831.16
2023-03-22T01:27:39.120Z,100835.75
2023-03-22T01:30:08.375Z,100840.88
2023-03-22T01:32:37.043Z,100835.84
2023-03-22T01:35:06.633Z,100830.94
2023-03-22T01:37:35.413Z,100844.59
2023-03-22T01:40:04.425Z,100846.47
2023-03-22T01:42:33.166Z,100838.38
2023-03-22T01:45:16.844Z,100853.13
2023-03-22T01:47:52.002Z,100840.72
2023-03-22T01:50:20.805Z,100849.34
2023-03-22T01:52:52.388Z,100853.19
2023-03-22T01:55:28.203Z,100846.25
2023-03-22T01:58:10.711Z,100853.41
2023-03-22T02:00:48.310Z,100851.78
2023-03-22T02:03:55.903Z,100846.53
2023-03-22T02:06:26.090Z,100845.91
2023-03-22T02:09:00.381Z,100849.31
2023-03-22T02:11:38.602Z,100852.00
2023-03-22T02:14:27.289Z,100848.47
2023-03-22T02:17:33.821Z,100848.75
2023-03-22T02:20:28.531Z,100852.34
2023-03-22T02:23:41.334Z,100847.38
2023-03-22T02:26:24.395Z,100850.94
2023-03-22T02:29:08.316Z,100856.22
2023-03-22T02:31:42.395Z,100852.00
2023-03-22T02:34:27.777Z,100852.06
2023-03-22T02:37:10.279Z,100859.94
2023-03-22T02:39:54.064Z,100853.91
2023-03-22T02:42:37.047Z,100865.28
2023-03-22T02:45:15.575Z,100851.72
2023-03-22T02:47:49.913Z,100860.28
2023-03-22T02:50:22.614Z,100861.94
2023-03-22T02:52:56.266Z,100867.25
2023-03-22T02:55:33.211Z,100868.38
2023-03-22T02:58:07.911Z,100869.25
2023-03-22T03:00:39.022Z,100880.81
2023-03-22T03:03:12.793Z,100871.81
2023-03-22T03:05:48.871Z,100879.75
2023-03-22T03:08:18.203Z,100878.03
2023-03-22T03:10:50.406Z,100888.47
2023-03-22T03:13:19.592Z,100873.50
2023-03-22T03:15:52.803Z,100885.00
2023-03-22T03:18:45.355Z,100880.53
2023-03-22T03:21:34.929Z,100891.03
2023-03-22T03:24:24.886Z,100891.16
2023-03-22T03:27:11.692Z,100896.53
2023-03-22T03:29:50.977Z,100903.66
2023-03-22T03:32:28.644Z,100903.69
2023-03-22T03:35:22.696Z,100899.03
2023-03-22T03:38:19.415Z,100906.97
2023-03-22T03:40:52.723Z,100907.13
2023-03-22T03:43:25.602Z,100914.09
2023-03-22T03:45:55.867Z,100907.13
2023-03-22T03:48:28.265Z,100911.47
2023-03-22T03:50:57.533Z,100921.06
2023-03-22T03:53:26.028Z,100916.66
2023-03-22T03:55:53.636Z,100917.63
2023-03-22T03:58:23.273Z,100920.19
2023-03-22T04:00:51.199Z,100923.41
2023-03-22T04:03:44.730Z,100925.03
2023-03-22T04:06:12.444Z,100922.47
2023-03-22T04:08:45.670Z,100930.34
2023-03-22T04:11:18.260Z,100931.94
2023-03-22T04:13:50.447Z,100933.72
2023-03-22T04:16:21.832Z,100927.63
2023-03-22T04:18:53.439Z,100936.34
2023-03-22T04:21:21.962Z,100931.94
2023-03-22T04:23:56.884Z,100935.50
2023-03-22T04:26:26.671Z,100932.88
2023-03-22T04:29:13.081Z,100937.38
2023-03-22T04:31:49.620Z,100934.59
2023-03-22T04:34:22.185Z,100935.50
2023-03-22T04:36:56.553Z,100941.78
2023-03-22T04:39:54.329Z,100936.25
2023-03-22T04:42:32.915Z,100938.69
2023-03-22T04:45:14.232Z,100937.72
2023-03-22T04:47:45.052Z,100941.25
2023-03-22T04:50:13.427Z,100942.66
2023-03-22T04:52:50.065Z,100936.31
2023-03-22T04:55:21.307Z,100940.50
2023-03-22T04:57:49.672Z,100944.66
2023-03-22T05:00:18.854Z,100945.19
2023-03-22T05:02:46.768Z,100951.88
2023-03-22T05:05:24.794Z,100950.91
2023-03-22T05:07:52.919Z,100949.03
2023-03-22T05:10:21.439Z,100954.88
2023-03-22T05:12:49.902Z,100951.09
2023-03-22T05:15:21.974Z,100948.94
2023-03-22T05:17:52.803Z,100949.44
2023-03-22T05:20:20.772Z,100950.78
2023-03-22T05:22:58.844Z,100945.06
2023-03-22T05:25:28.430Z,100946.47
2023-03-22T05:28:01.449Z,100954.84
2023-03-22T05:30:43.172Z,100947.31
2023-03-22T05:33:35.293Z,100948.22
2023-03-22T05:36:04.131Z,100959.91
2023-03-22T05:38:38.444Z,100960.25
2023-03-22T05:41:07.904Z,100961.75
2023-03-22T05:43:36.441Z,100961.31
2023-03-22T05:46:14.285Z,100968.16
2023-03-22T05:49:03.729Z,100960.09
2023-03-22T05:51:31.812Z,100966.19
2023-03-22T05:53:59.474Z,100965.84
2023-03-22T05:56:35.340Z,100966.44
2023-03-22T05:59:07.679Z,100967.91
2023-03-22T06:01:36.612Z,100961.28
2023-03-22T06:04:33.404Z,100975.97
2023-03-22T06:07:05.750Z,100977.59
2023-03-22T06:09:53.592Z,100979.72
2023-03-22T06:12:33.410Z,100976.22
2023-03-22T06:15:10.827Z,100979.63
2023-03-22T06:17:43.151Z,100980.34
2023-03-22T06:20:17.936Z,100989.72
2023-03-22T06:22:52.839Z,100994.75
2023-03-22T06:25:20.567Z,100992.34
2023-03-22T06:27:49.269Z,100992.88
2023-03-22T06:30:18.284Z,100991.56
2023-03-22T06:33:13.069Z,100994.09
2023-03-22T06:35:44.918Z,100999.34
2023-03-22T06:38:18.603Z,100988.91
2023-03-22T06:40:46.869Z,100988.00
2023-03-22T06:43:15.173Z,100990.50
2023-03-22T06:45:48.045Z,100997.91
2023-03-22T06:48:19.363Z,100993.16
2023-03-22T06:50:59.657Z,100992.66
2023-03-22T06:53:32.057Z,100999.66
2023-03-22T06:55:59.808Z,100996.81
2023-03-22T06:58:28.437Z,101003.31
2023-03-22T07:00:57.195Z,100996.25
2023-03-22T07:03:27.682Z,100998.47
2023-03-22T07:06:07.445Z,101001.09
2023-03-22T07:08:38.188Z,100993.69
2023-03-22T07:11:07.639Z,101002.06
2023-03-22T07:13:36.460Z,101012.63
2023-03-22T07:16:10.618Z,101005.56
2023-03-22T07:18:52.306Z,101003.53
2023-03-22T07:21:19.895Z,101006.97
2023-03-22T07:23:52.567Z,101005.81
2023-03-22T07:26:22.582Z,101013.81
2023-03-22T07:28:51.662Z,101002.28
2023-03-22T07:31:22.182Z,100999.41
2023-03-22T07:34:12.006Z,101004.19
2023-03-22T07:37:03.063Z,101004.63
2023-03-22T07:39:35.765Z,101007.41
2023-03-22T07:42:05.712Z,101017.16
2023-03-22T07:44:57.032Z,101006.19
2023-03-22T07:47:40.079Z,101000.63
2023-03-22T07:50:26.649Z,101000.34
2023-03-22T07:53:00.091Z,101006.41
2023-03-22T07:55:27.955Z,100997.56
2023-03-22T07:57:56.545Z,100994.63
2023-03-22T08:00:24.627Z,100995.78
2023-03-22T08:03:26.714Z,101000.97
2023-03-22T08:06:07.706Z,101006.38
2023-03-22T08:08:37.431Z,101012.91
2023-03-22T08:11:07.430Z,101010.25
2023-03-22T08:13:35.860Z,101011.16
2023-03-22T08:16:05.523Z,101006.41
2023-03-22T08:18:35.466Z,101017.97
2023-03-22T08:21:04.378Z,101016.84
2023-03-22T08:23:42.219Z,101022.81
2023-03-22T08:26:49.818Z,101020.28
2023-03-22T08:29:38.299Z,101019.31
2023-03-22T08:32:06.589Z,101008.81
2023-03-22T08:34:38.233Z,101008.91
2023-03-22T08:37:07.771Z,101002.31
2023-03-22T08:39:36.717Z,101001.00
2023-03-22T08:42:25.332Z,101000.81
2023-03-22T08:44:52.869Z,101005.72
2023-03-22T08:47:24.518Z,101007.84
2023-03-22T08:49:57.389Z,100996.94
2023-03-22T08:52:36.095Z,100992.06
2023-03-22T08:55:09.304Z,100991.59
2023-03-22T08:57:59.051Z,100987.69
2023-03-22T09:00:48.234Z,100993.81
2023-03-22T09:03:37.181Z,100991.09
2023-03-22T09:06:05.823Z,100989.34
2023-03-22T09:08:38.996Z,100987.06
2023-03-22T09:11:15.606Z,100984.13
2023-03-22T09:13:56.300Z,100989.44
2023-03-22T09:16:30.345Z,100991.72
2023-03-22T09:19:01.674Z,100990.19
2023-03-22T09:21:32.547Z,100996.78
2023-03-22T09:24:12.222Z,100987.47
2023-03-22T09:26:46.649Z,100978.53
2023-03-22T09:29:17.008Z,100982.69
2023-03-22T09:31:49.046Z,100986.97
2023-03-22T09:34:24.523Z,100990.03
2023-03-22T09:36:53.183Z,100982.22
2023-03-22T09:39:25.094Z,100988.00
2023-03-22T09:42:00.827Z,100985.94
2023-03-22T09:44:37.630Z,100982.06
2023-03-22T09:47:15.879Z,100982.91
2023-03-22T09:49:54.069Z,100980.72
2023-03-22T09:52:22.745Z,100985.19
2023-03-22T09:54:52.669Z,100977.88
2023-03-22T09:57:37.446Z,100985.53
2023-03-22T10:00:11.723Z,100985.19
2023-03-22T10:02:57.984Z,100984.63
2023-03-22T10:05:35.208Z,100973.41
2023-03-22T10:08:41.594Z,100974.47
2023-03-22T10:11:22.825Z,100969.53
2023-03-22T10:14:35.351Z,100975.22
2023-03-22T10:17:08.723Z,100981.38
2023-03-22T10:20:01.068Z,100973.88
2023-03-22T10:22:33.638Z,100974.63
2023-03-22T10:25:02.570Z,100969.50
2023-03-22T10:27:32.084Z,100964.63
2023-03-22T10:30:22.530Z,100963.31
2023-03-22T10:33:00.043Z,100959.84
2023-03-22T10:35:28.704Z,100951.63
2023-03-22T10:38:00.949Z,100957.84
2023-03-22T10:40:35.363Z,100958.25
2023-03-22T10:43:09.975Z,100951.88
2023-03-22T10:45:38.202Z,100953.88
2023-03-22T10:48:27.057Z,100949.69
2023-03-22T10:50:56.933Z,100950.34
2023-03-22T10:53:41.225Z,100946.28
2023-03-22T10:56:15.727Z,100939.44
2023-03-22T10:58:49.351Z,100940.84
2023-03-22T11:01:41.590Z,100939.63
2023-03-22T11:04:15.273Z,100938.28
2023-03-22T11:06:54.840Z,100944.56
2023-03-22T11:09:24.654Z,100939.66
2023-03-22T11:12:00.278Z,100936.59
2023-03-22T11:14:35.706Z,100939.25
2023-03-22T11:17:06.467Z,100917.72
2023-03-22T11:19:50.408Z,100923.88
2023-03-22T11:22:31.644Z,100918.06
2023-03-22T11:25:00.878Z,100918.84
2023-03-22T11:27:33.419Z,100921.97
2023-03-22T11:30:20.415Z,100908.63
2023-03-22T11:32:49.154Z,100921.88
2023-03-22T11:35:27.724Z,100914.88
2023-03-22T11:37:56.525Z,100917.91
2023-03-22T11:40:29.976Z,100914.25
2023-03-22T11:43:10.811Z,100912.78
2023-03-22T11:45:45.597Z,100903.56
2023-03-22T11:48:16.511Z,100903.34
2023-03-22T11:50:46.421Z,100904.63
2023-03-22T11:53:18.095Z,100900.16
2023-03-22T11:55:48.641Z,100899.63
2023-03-22T11:58:49.137Z,100898.47
2023-03-22T12:01:32.212Z,100898.88
2023-03-22T12:04:04.183Z,100897.84
2023-03-22T12:06:41.041Z,100900.56
2023-03-22T12:09:35.724Z,100891.00
2023-03-22T12:12:06.816Z,100889.31
2023-03-22T12:14:45.487Z,100888.78
2023-03-22T12:17:19.735Z,100885.31
2023-03-22T12:19:58.225Z,100887.16
2023-03-22T12:22:32.187Z,100877.31
2023-03-22T12:25:01.623Z,100879.03
2023-03-22T12:27:37.556Z,100882.22
2023-03-22T12:30:16.601Z,100880.94
2023-03-22T12:32:59.722Z,100888.06
2023-03-22T12:35:31.783Z,100886.47
2023-03-22T12:38:06.871Z,100887.66
2023-03-22T12:40:39.639Z,100889.00
2023-03-22T12:43:30.980Z,100882.22
2023-03-22T12:46:03.246Z,100888.28
2023-03-22T12:48:44.620Z,100893.72
2023-03-22T12:51:14.886Z,100895.88
2023-03-22T12:53:49.335Z,100894.91
2023-03-22T12:56:25.738Z,100888.06
2023-03-22T12:59:03.547Z,100883.06
2023-03-22T13:02:05.499Z,100888.94
2023-03-22T13:04:51.632Z,100894.88
2023-03-22T13:07:29.076Z,100889.34
2023-03-22T13:09:58.607Z,100897.84
2023-03-22T13:12:34.429Z,100885.94
2023-03-22T13:15:40.412Z,100888.41
2023-03-22T13:18:43.783Z,100880.28
2023-03-22T13:21:14.037Z,100888.41
2023-03-22T13:24:20.171Z,100886.03
2023-03-22T13:26:55.147Z,100894.13
2023-03-22T13:29:25.584Z,100885.19
2023-03-22T13:32:02.072Z,100887.09
2023-03-22T13:34:49.199Z,100887.75
2023-03-22T13:37:46.035Z,100893.00
2023-03-22T13:40:15.366Z,100896.41
2023-03-22T13:42:45.318Z,100898.31
2023-03-22T13:45:34.003Z,100896.16
2023-03-22T13:48:28.947Z,100889.56
2023-03-22T13:50:58.502Z,100890.75
2023-03-22T13:53:30.960Z,100888.41
2023-03-22T13:56:03.741Z,100880.09
2023-03-22T13:58:53.115Z,100883.19
2023-03-22T14:01:35.308Z,100873.63
2023-03-22T14:04:10.776Z,100872.00
2023-03-22T14:06:52.673Z,100869.22
2023-03-22T14:09:31.353Z,100872.00
2023-03-22T14:12:27.162Z,100877.22
2023-03-22T14:15:03.644Z,100874.03
2023-03-22T14:17:39.374Z,100877.31
2023-03-22T14:20:10.769Z,100880.28
